Parachute, CO

1:02 PM MDT on October 25, 2014 (GMT -0600)
Walker | Change Station
CLOSE
Current Station
Airport
Location: Grand Junction,
Elevation: 4856 ft
Nearby Weather Stations

Elev 4856 ft 39.13 °N, 108.54 °W | Updated 9 minutes ago

Clear
Clear
70 °F
Feels Like 70 °F
N
6
Wind Variable Wind from SE

Today
High -- | Low -- °F
--% Chance of Precip.
Yesterday
High -- | Low -- °F
Precip. -- in
7:32 AM 6:19 PM
Waxing Crescent, 4% visible
Pressure 30.06 in
Visibility 10.0 miles
Clouds Clear
Dew Point 29 °F
Humidity 22%
Rainfall 0.00 in
Snow Depth Not available.
UV 5 out of 12
Pollen 2.10 out of 12
Air Quality Not available.
Flu Activity Not available.
METAR KGJT 251853Z 13005KT 10SM CLR 21/M02 A3019 RMK AO2 SLP179 T02111017

More Conditions Fewer Conditions

Pressure 30.06 in
Visibility 10.0 miles
Clouds Clear
Dew Point 29 °F
Humidity 22%
Rainfall 0.00 in
Snow Depth Not available.
UV 5 out of 12
Pollen 2.10 out of 12
Air Quality Not available.
Flu Activity Not available.
METAR KGJT 251853Z 13005KT 10SM CLR 21/M02 A3019 RMK AO2 SLP179 T02111017

More Conditions Fewer Conditions

10-Day Weather Forecast

Almanac

Astronomy

Oct. 25, 2014 Rise Set
Actual Time 7:32 AM MDT 6:19 PM MDT
Civil Twilight 7:05 AM MDT 6:46 PM MDT
Nautical Twilight 6:33 AM MDT 7:17 PM MDT
Astronomical Twilight 6:02 AM MDT 7:49 PM MDT
Moon 9:14 AM MDT 7:44 PM MDT
Length of Visible Light 11h 41m
Length of Day
10h 46m
Tomorrow will be 2m 22s shorter.
Waxing Crescent, 4% of the Moon is Illuminated
Today
Waxing Crescent
Oct 30
First Quarter
Nov 6
Full
Nov 14
Last Quarter
Nov 22
New

Today's Extremes

State Highs State Lows

Community

WunderPhotos

Upload Photos

1,764,958 photos uploaded!

Nearby

Snow Depth

Station Depth Elevation
Overland Reservoir 0 in 9880 ft
McClure Pass 0 in 9500 ft
North Lost Trail 0 in 9200 ft
Kiln 0 in 9600 ft
Mccoy Park 14 in 9480 ft

Earthquake Activity

City Distance Mag. Time & Date
No recent earthquake activity has been reported nearby.
Minimum magnitude displayed is 2.5.

Coastal Water Temperatures

Place Temperature
No Stations Reporting

Nearby Weather Stations